Time;durP1;ratioP1;P1;durP2;ratioP2;P2;SDS_P1;SDS_P2;PMS_P1;PMS_P2;Temp;Humidity;BMP_temperature;BMP_pressure;BME280_temperature;BME280_humidity;BME280_pressure;Samples;Min_cycle;Max_cycle;Signal;HPM_P1;HPM_P2
2023/03/31 00:01:35;;;;;;;5.68;1.88;;;18.20;54.80;;;;;;4997695;28;20044;-73
2023/03/31 00:04:04;;;;;;;4.43;1.42;;;18.20;54.80;;;;;;5015288;28;20021;-72
2023/03/31 00:06:37;;;;;;;3.15;1.05;;;18.20;54.70;;;;;;4998097;28;20084;-73
2023/03/31 00:09:17;;;;;;;2.42;1.13;;;18.20;54.80;;;;;;5015148;28;20110;-73
2023/03/31 00:11:45;;;;;;;3.67;1.40;;;18.20;54.80;;;;;;5015048;28;20422;-72
2023/03/31 00:14:11;;;;;;;4.10;1.42;;;18.10;54.80;;;;;;5014903;28;20085;-72
2023/03/31 00:16:38;;;;;;;5.20;1.33;;;18.10;54.80;;;;;;5014470;28;20061;-73
2023/03/31 00:19:08;;;;;;;3.83;1.25;;;18.10;54.40;;;;;;5014879;28;20092;-72
2023/03/31 00:21:35;;;;;;;4.55;1.58;;;18.00;54.90;;;;;;5014522;28;20034;-72
2023/03/31 00:24:06;;;;;;;3.38;1.20;;;18.10;55.10;;;;;;5014821;28;20416;-73
2023/03/31 00:26:33;;;;;;;5.03;1.60;;;18.10;55.00;;;;;;5014723;28;20026;-72
2023/03/31 00:29:00;;;;;;;4.07;1.48;;;18.10;54.90;;;;;;5014622;28;20100;-74
2023/03/31 00:31:26;;;;;;;3.15;1.30;;;18.10;54.90;;;;;;5014366;28;20493;-73
2023/03/31 00:33:53;;;;;;;3.17;1.10;;;18.00;55.00;;;;;;5014563;28;20026;-73
2023/03/31 00:36:20;;;;;;;3.63;1.00;;;;;;;;;;5014552;28;20029;-73
2023/03/31 00:38:47;;;;;;;2.90;1.17;;;18.10;54.40;;;;;;5014246;28;20100;-73
2023/03/31 00:41:14;;;;;;;5.20;1.40;;;18.10;54.90;;;;;;5014382;28;20041;-74
2023/03/31 00:43:41;;;;;;;3.63;1.30;;;18.00;55.60;;;;;;4997190;28;20067;-73
2023/03/31 00:46:32;;;;;;;2.38;1.13;;;18.10;55.30;;;;;;5014235;28;20037;-73
2023/03/31 00:48:58;;;;;;;1.90;1.08;;;18.00;54.90;;;;;;5014361;28;20030;-73
2023/03/31 00:51:30;;;;;;;3.20;1.10;;;18.00;55.30;;;;;;4996911;28;20026;-74
2023/03/31 00:54:01;;;;;;;5.22;1.25;;;18.00;55.00;;;;;;5013727;28;20604;-73
2023/03/31 00:56:29;;;;;;;;;;;18.00;55.10;;;;;;5014637;28;20022;-74
2023/03/31 00:59:01;;;;;;;2.17;1.00;;;18.00;55.20;;;;;;5014415;28;19912;-73
2023/03/31 01:01:29;;;;;;;2.35;1.15;;;;;;;;;;5014107;28;20057;-73
2023/03/31 01:03:56;;;;;;;2.60;1.20;;;17.90;54.60;;;;;;5013952;28;20030;-73
2023/03/31 01:06:24;;;;;;;3.35;1.30;;;17.90;55.30;;;;;;5013924;28;20037;-73
2023/03/31 01:08:51;;;;;;;2.95;1.17;;;17.90;55.20;;;;;;5013629;28;20492;-73
2023/03/31 01:11:26;;;;;;;3.47;1.52;;;17.90;55.30;;;;;;5013560;28;20084;-73
2023/03/31 01:13:55;;;;;;;3.25;1.30;;;17.90;56.00;;;;;;5013709;28;20144;-74
2023/03/31 01:16:21;;;;;;;3.60;1.45;;;17.90;55.30;;;;;;5013117;28;20108;-73
2023/03/31 01:18:48;;;;;;;3.30;1.20;;;17.90;55.30;;;;;;5013508;28;20548;-73
2023/03/31 01:21:39;;;;;;;2.55;1.10;;;17.90;55.40;;;;;;4996139;28;20106;-73
2023/03/31 01:24:24;;;;;;;4.80;1.20;;;17.90;55.30;;;;;;5013312;28;20021;-74
2023/03/31 01:27:07;;;;;;;3.75;0.98;;;17.90;55.40;;;;;;5013595;28;20026;-73
2023/03/31 01:30:17;;;;;;;2.30;1.05;;;17.90;55.40;;;;;;5013270;28;20107;-73
2023/03/31 01:33:02;;;;;;;2.05;1.05;;;18.10;55.50;;;;;;4990494;28;20038;-73
2023/03/31 01:35:34;;;;;;;4.38;1.27;;;17.80;55.40;;;;;;5013495;28;20029;-74
2023/03/31 01:38:38;;;;;;;4.03;1.52;;;17.80;55.50;;;;;;5013208;28;20056;-73
2023/03/31 01:41:25;;;;;;;4.57;1.13;;;17.80;55.40;;;;;;5012126;28;20117;-73
2023/03/31 01:43:56;;;;;;;2.28;0.98;;;17.80;55.50;;;;;;5013042;28;20121;-73
2023/03/31 01:46:40;;;;;;;6.13;1.27;;;17.80;55.60;;;;;;5012967;28;20082;-73
2023/03/31 01:49:15;;;;;;;4.88;1.10;;;17.80;55.60;;;;;;5012763;28;20026;-73
2023/03/31 01:51:50;;;;;;;3.40;1.25;;;17.80;55.60;;;;;;5012439;28;20026;-73
2023/03/31 01:54:43;;;;;;;4.43;1.23;;;17.80;55.60;;;;;;5012479;28;20540;-73
2023/03/31 01:57:34;;;;;;;3.92;1.30;;;17.80;55.70;;;;;;5012859;28;20041;-73
2023/03/31 02:00:10;;;;;;;3.58;1.20;;;17.80;55.70;;;;;;5012380;28;20045;-73
2023/03/31 02:03:02;;;;;;;5.78;1.13;;;17.80;55.60;;;;;;5012561;28;20045;-73
2023/03/31 02:05:37;;;;;;;3.58;1.33;;;17.80;55.70;;;;;;5011921;28;20037;-73
2023/03/31 02:08:12;;;;;;;2.38;0.98;;;17.90;55.90;;;;;;4995508;28;20065;-73
2023/03/31 02:10:41;;;;;;;3.10;0.95;;;17.70;56.00;;;;;;5012319;28;20021;-73
2023/03/31 02:13:09;;;;;;;2.53;0.80;;;17.70;56.10;;;;;;5012783;28;20033;-73
2023/03/31 02:15:39;;;;;;;4.22;1.48;;;17.70;56.20;;;;;;5012279;28;20038;-73
2023/03/31 02:18:10;;;;;;;3.03;1.13;;;17.70;56.20;;;;;;5012473;28;20026;-73
2023/03/31 02:20:40;;;;;;;3.60;1.05;;;17.70;56.20;;;;;;5012285;28;20061;-73
2023/03/31 02:23:09;;;;;;;4.68;1.45;;;17.70;56.30;;;;;;5012622;28;20038;-73
2023/03/31 02:25:41;;;;;;;4.05;1.10;;;17.70;56.30;;;;;;5012531;28;20034;-73
2023/03/31 02:28:17;;;;;;;2.40;1.23;;;17.70;56.40;;;;;;4995137;28;20025;-73
2023/03/31 02:31:05;;;;;;;2.42;1.00;;;17.70;56.40;;;;;;4994693;28;20105;-73
2023/03/31 02:33:31;;;;;;;2.47;1.00;;;;;;;;;;5012615;28;20084;-73
2023/03/31 02:35:58;;;;;;;5.10;1.38;;;17.70;55.90;;;;;;4994819;28;20026;-73
2023/03/31 02:38:25;;;;;;;3.72;1.10;;;16.10;55.90;;;;;;4994686;28;20060;-73
2023/03/31 02:40:51;;;;;;;3.40;1.10;;;17.70;57.00;;;;;;4978581;28;20516;-73
2023/03/31 02:43:17;;;;;;;4.38;1.02;;;17.70;56.50;;;;;;4994622;28;20037;-73
2023/03/31 02:45:48;;;;;;;2.45;0.77;;;17.70;56.50;;;;;;4994535;28;20033;-73
2023/03/31 02:48:18;;;;;;;2.63;1.00;;;17.70;56.50;;;;;;4994463;28;20028;-73
2023/03/31 02:51:28;;;;;;;3.35;0.90;;;17.70;56.60;;;;;;5012244;28;20085;-73
2023/03/31 02:53:54;;;;;;;2.13;0.90;;;17.70;56.50;;;;;;5012128;28;20041;-73
2023/03/31 02:56:30;;;;;;;3.45;0.93;;;17.70;56.50;;;;;;5012092;28;20026;-73
2023/03/31 02:59:20;;;;;;;2.60;1.00;;;17.70;56.40;;;;;;5012073;28;20026;-73
2023/03/31 03:02:16;;;;;;;2.80;0.80;;;17.90;56.60;;;;;;5011965;28;20069;-73
2023/03/31 03:05:12;;;;;;;3.22;1.20;;;17.70;56.50;;;;;;5012255;28;20443;-73
2023/03/31 03:07:54;;;;;;;2.97;0.90;;;17.70;56.70;;;;;;5003234;28;20125;-73
2023/03/31 03:10:48;;;;;;;2.67;1.23;;;17.70;56.50;;;;;;5012263;28;20022;-73
2023/03/31 03:13:36;;;;;;;3.95;1.00;;;17.90;56.60;;;;;;5012159;28;20041;-75
2023/03/31 03:16:07;;;;;;;2.40;0.73;;;17.70;56.50;;;;;;5011963;28;20050;-75
2023/03/31 03:18:33;;;;;;;2.67;0.93;;;17.70;56.60;;;;;;5014961;28;20111;-75
2023/03/31 03:20:58;;;;;;;2.97;1.10;;;17.70;56.50;;;;;;5015752;28;20029;-75
2023/03/31 03:23:24;;;;;;;3.10;1.13;;;17.70;56.50;;;;;;5015682;28;20385;-75
2023/03/31 03:25:50;;;;;;;3.75;1.13;;;17.70;56.40;;;;;;5015673;28;20110;-75
2023/03/31 03:28:16;;;;;;;1.80;1.00;;;17.60;56.40;;;;;;5015777;28;20037;-75
2023/03/31 03:30:42;;;;;;;2.47;1.13;;;17.70;56.50;;;;;;5015859;28;20029;-75
2023/03/31 03:33:08;;;;;;;1.90;0.95;;;17.70;57.20;;;;;;5015556;28;20022;-75
2023/03/31 03:35:35;;;;;;;3.85;1.10;;;17.70;56.50;;;;;;5015816;28;20395;-76
2023/03/31 03:38:00;;;;;;;4.05;1.35;;;17.70;56.60;;;;;;5015535;28;20109;-75
2023/03/31 03:40:26;;;;;;;3.42;1.13;;;17.70;57.00;;;;;;5015741;28;20370;-75
2023/03/31 03:42:52;;;;;;;2.30;0.80;;;17.70;56.40;;;;;;5015435;28;20084;-75
2023/03/31 03:45:18;;;;;;;2.20;0.90;;;17.60;56.30;;;;;;5015905;28;20069;-75
2023/03/31 03:47:44;;;;;;;3.47;1.40;;;17.60;56.40;;;;;;5015647;28;20076;-75
2023/03/31 03:50:12;;;;;;;3.22;1.25;;;17.60;56.60;;;;;;5015333;28;20032;-75
2023/03/31 03:52:38;;;;;;;3.53;1.58;;;17.60;56.50;;;;;;5015410;28;20105;-74
2023/03/31 03:55:05;;;;;;;3.50;1.10;;;17.60;56.70;;;;;;5015397;28;20097;-74
2023/03/31 03:57:31;;;;;;;3.40;1.30;;;17.60;56.40;;;;;;5015309;28;20025;-74
2023/03/31 03:59:57;;;;;;;3.88;0.98;;;17.60;56.50;;;;;;5015044;28;20503;-75
2023/03/31 04:02:24;;;;;;;3.42;1.13;;;17.60;56.40;;;;;;5014878;28;20037;-74
2023/03/31 04:04:50;;;;;;;2.67;1.00;;;17.60;56.50;;;;;;5015009;28;20542;-74
2023/03/31 04:07:16;;;;;;;2.92;1.10;;;17.60;56.50;;;;;;5014865;28;20109;-74
2023/03/31 04:09:42;;;;;;;2.50;0.80;;;17.60;56.60;;;;;;5015212;28;20092;-75
2023/03/31 04:12:08;;;;;;;2.83;1.00;;;17.60;56.50;;;;;;5015013;28;20137;-74
2023/03/31 04:14:34;;;;;;;2.72;0.75;;;17.60;56.60;;;;;;5014674;28;20160;-74
2023/03/31 04:17:01;;;;;;;2.72;0.80;;;17.60;56.50;;;;;;5014660;28;20107;-74
2023/03/31 04:19:27;;;;;;;3.42;1.30;;;17.50;56.30;;;;;;5014988;28;20022;-75
2023/03/31 04:22:03;;;;;;;2.67;1.10;;;17.60;56.40;;;;;;4997016;28;20497;-74
2023/03/31 04:24:31;;;;;;;2.85;0.93;;;17.60;56.60;;;;;;4998672;28;20026;-74
2023/03/31 04:26:58;;;;;;;2.85;0.88;;;17.50;57.10;;;;;;4997576;28;20037;-74
2023/03/31 04:29:25;;;;;;;2.38;1.00;;;17.50;56.50;;;;;;4996426;28;20428;-74
2023/03/31 04:31:58;;;;;;;3.03;1.20;;;17.50;56.40;;;;;;4997469;28;20037;-74
2023/03/31 04:34:33;;;;;;;3.55;1.02;;;17.50;60.40;;;;;;4997183;28;20401;-74
2023/03/31 04:37:01;;;;;;;2.90;0.98;;;17.50;56.40;;;;;;4998210;28;20034;-74
2023/03/31 04:39:31;;;;;;;2.78;1.33;;;17.50;56.40;;;;;;4997240;28;20022;-74
2023/03/31 04:41:59;;;;;;;3.13;1.30;;;17.50;56.50;;;;;;4997213;28;20041;-74
2023/03/31 04:44:26;;;;;;;3.33;1.15;;;17.50;56.50;;;;;;4996747;28;20029;-74
2023/03/31 04:46:53;;;;;;;3.80;1.02;;;17.50;56.60;;;;;;4996657;28;20515;-74
2023/03/31 04:49:19;;;;;;;3.28;1.10;;;17.50;56.60;;;;;;4996934;28;20037;-74
2023/03/31 04:51:45;;;;;;;2.83;1.10;;;17.50;56.50;;;;;;4996774;28;20030;-74
2023/03/31 04:54:12;;;;;;;2.53;1.00;;;17.50;56.60;;;;;;4996802;28;20109;-74
2023/03/31 04:56:38;;;;;;;2.63;1.00;;;17.50;56.70;;;;;;4996783;28;20056;-74
2023/03/31 04:59:04;;;;;;;2.47;1.42;;;17.50;56.70;;;;;;4996751;28;20358;-74
2023/03/31 05:01:31;;;;;;;2.10;1.10;;;17.50;56.60;;;;;;4996363;28;20501;-74
2023/03/31 05:03:58;;;;;;;2.17;1.13;;;17.50;56.60;;;;;;4996863;28;20034;-74
2023/03/31 05:06:25;;;;;;;3.45;1.80;;;17.50;56.70;;;;;;4996762;28;20041;-74
2023/03/31 05:08:51;;;;;;;2.50;2.15;;;17.50;56.80;;;;;;4996539;28;20034;-74
2023/03/31 05:11:17;;;;;;;3.70;3.30;;;17.50;56.90;;;;;;4996187;28;20121;-74
2023/03/31 05:13:43;;;;;;;5.70;4.63;;;17.50;57.10;;;;;;4996487;28;20018;-74
2023/03/31 05:16:13;;;;;;;5.38;4.97;;;17.40;57.20;;;;;;4995843;28;20054;-74
2023/03/31 05:18:42;;;;;;;7.97;6.25;;;17.50;57.40;;;;;;4996639;28;20034;-74
2023/03/31 05:21:18;;;;;;;7.10;6.40;;;17.50;57.50;;;;;;4996036;28;20037;-74
2023/03/31 05:23:45;;;;;;;8.75;7.95;;;17.50;57.50;;;;;;4996032;28;20054;-74
2023/03/31 05:26:12;;;;;;;8.57;7.78;;;17.50;57.50;;;;;;4996174;28;20029;-74
2023/03/31 05:28:38;;;;;;;10.18;9.30;;;17.50;57.50;;;;;;4996283;28;20034;-75
2023/03/31 05:31:06;;;;;;;9.40;8.70;;;17.50;57.50;;;;;;4996111;28;20079;-74
2023/03/31 05:33:33;;;;;;;10.20;9.32;;;17.50;57.50;;;;;;4996200;28;20045;-75
2023/03/31 05:35:59;;;;;;;11.38;9.68;;;17.50;57.50;;;;;;4995783;28;20044;-75
2023/03/31 05:38:27;;;;;;;10.70;9.90;;;17.50;57.50;;;;;;4995538;28;20338;-75
2023/03/31 05:40:54;;;;;;;10.27;9.55;;;17.50;57.50;;;;;;4996075;28;20080;-76
2023/03/31 05:43:20;;;;;;;11.20;10.32;;;17.50;57.40;;;;;;4995599;28;20125;-75
2023/03/31 05:45:46;;;;;;;9.32;8.65;;;17.50;57.40;;;;;;4996057;28;20018;-75
2023/03/31 05:48:12;;;;;;;8.65;8.05;;;17.50;57.50;;;;;;4995798;28;20334;-75
2023/03/31 05:50:39;;;;;;;9.10;8.30;;;17.50;57.40;;;;;;5013194;28;20105;-74
2023/03/31 05:53:05;;;;;;;9.02;8.23;;;17.50;57.40;;;;;;4995681;28;20465;-75
2023/03/31 05:55:32;;;;;;;9.25;8.45;;;17.50;57.50;;;;;;4995366;28;20500;-75
2023/03/31 05:57:58;;;;;;;7.50;6.80;;;17.50;57.40;;;;;;4995885;28;20391;-75
2023/03/31 06:00:24;;;;;;;7.55;5.88;;;17.50;57.40;;;;;;4995203;28;20170;-75
2023/03/31 06:02:51;;;;;;;5.57;5.13;;;17.50;57.30;;;;;;4995413;28;20088;-75
2023/03/31 06:05:17;;;;;;;5.90;5.40;;;17.50;57.40;;;;;;4995566;28;20061;-75
2023/03/31 06:07:43;;;;;;;6.95;5.47;;;17.40;57.20;;;;;;4995582;28;20036;-75
2023/03/31 06:10:09;;;;;;;7.57;6.35;;;17.40;57.40;;;;;;4995433;28;20120;-75
2023/03/31 06:12:35;;;;;;;7.10;6.50;;;17.40;57.30;;;;;;4995218;28;20068;-76
2023/03/31 06:15:02;;;;;;;6.97;5.90;;;17.40;57.40;;;;;;5012704;28;20497;-74
2023/03/31 06:17:28;;;;;;;6.55;5.93;;;17.40;57.40;;;;;;5013093;28;20030;-75
2023/03/31 06:19:54;;;;;;;9.40;7.28;;;17.40;57.50;;;;;;5012751;28;20384;-75
2023/03/31 06:22:20;;;;;;;8.82;7.55;;;17.40;57.50;;;;;;5012635;28;20034;-75
2023/03/31 06:24:46;;;;;;;11.45;8.00;;;17.40;57.30;;;;;;5012669;28;20460;-75
2023/03/31 06:27:12;;;;;;;10.52;7.53;;;17.40;57.20;;;;;;5012752;28;20078;-74
2023/03/31 06:29:38;;;;;;;8.15;7.10;;;17.30;57.20;;;;;;5012638;28;20429;-75
2023/03/31 06:32:03;;;;;;;8.63;7.20;;;17.30;57.30;;;;;;5014062;28;20038;-75
2023/03/31 06:34:29;;;;;;;8.18;7.38;;;17.30;57.30;;;;;;5013748;28;20066;-74
2023/03/31 06:36:55;;;;;;;7.38;6.45;;;17.30;57.30;;;;;;5012310;28;20114;-76
2023/03/31 06:39:21;;;;;;;7.63;6.85;;;17.30;57.40;;;;;;5012696;28;20033;-74
2023/03/31 06:41:47;;;;;;;5.88;5.38;;;17.30;57.50;;;;;;5012199;28;20374;-74
2023/03/31 06:44:15;;;;;;;6.45;5.80;;;17.40;57.60;;;;;;5012288;28;20028;-76
2023/03/31 06:46:41;;;;;;;6.75;5.60;;;17.30;57.60;;;;;;5012281;28;20109;-74
2023/03/31 06:49:07;;;;;;;6.63;5.20;;;17.30;57.60;;;;;;5012329;28;20405;-76
2023/03/31 06:51:33;;;;;;;4.72;4.40;;;17.30;57.60;;;;;;5013680;28;20034;-75
2023/03/31 06:53:58;;;;;;;4.82;4.30;;;17.30;57.70;;;;;;5016305;28;20488;-75
2023/03/31 06:56:26;;;;;;;7.65;4.43;;;17.40;57.70;;;;;;5016656;28;20018;-75
2023/03/31 06:58:52;;;;;;;4.40;3.80;;;17.40;57.90;;;;;;5016669;28;20026;-76
2023/03/31 07:01:18;;;;;;;4.15;3.72;;;17.40;57.90;;;;;;5016387;28;20034;-75
2023/03/31 07:03:44;;;;;;;5.55;3.90;;;17.40;57.80;;;;;;4998973;28;20384;-74
2023/03/31 07:06:10;;;;;;;4.45;3.00;;;17.40;57.90;;;;;;5015924;28;20025;-75
2023/03/31 07:08:36;;;;;;;3.30;3.00;;;17.40;57.90;;;;;;5015951;28;20532;-74
2023/03/31 07:11:02;;;;;;;4.78;3.20;;;17.40;58.00;;;;;;5016369;28;20221;-75
2023/03/31 07:13:28;;;;;;;3.97;3.40;;;17.50;58.20;;;;;;5016006;28;20034;-75
2023/03/31 07:15:55;;;;;;;3.53;2.90;;;17.50;58.20;;;;;;5015469;28;20046;-75
2023/03/31 07:18:24;;;;;;;3.85;2.60;;;17.50;58.20;;;;;;5015634;28;20054;-74
2023/03/31 07:20:51;;;;;;;2.55;2.30;;;17.50;58.20;;;;;;5015723;28;20022;-75
2023/03/31 07:23:18;;;;;;;3.13;2.40;;;17.50;58.10;;;;;;5015577;28;20033;-75
2023/03/31 07:25:46;;;;;;;4.40;2.25;;;17.50;58.20;;;;;;5015699;28;20030;-75
2023/03/31 07:28:11;;;;;;;2.42;2.08;;;17.50;58.40;;;;;;5015756;28;20029;-75
2023/03/31 07:30:39;;;;;;;2.95;2.00;;;17.60;58.20;;;;;;5015732;28;20040;-75
2023/03/31 07:33:05;;;;;;;5.45;2.08;;;17.60;58.20;;;;;;5015774;28;20026;-74
2023/03/31 07:35:31;;;;;;;4.07;2.00;;;17.60;58.20;;;;;;5015540;28;20089;-74
2023/03/31 07:37:57;;;;;;;3.90;2.35;;;17.60;58.30;;;;;;5015230;28;20081;-74
2023/03/31 07:40:26;;;;;;;3.78;2.10;;;17.60;58.70;;;;;;4998223;28;20033;-74
2023/03/31 07:42:52;;;;;;;3.43;1.87;;;17.60;58.50;;;;;;4998115;28;20464;-72
2023/03/31 07:45:23;;;;;;;3.55;1.83;;;17.70;58.70;;;;;;4997969;28;20073;-74
2023/03/31 07:47:49;;;;;;;4.68;1.90;;;17.70;58.60;;;;;;5015640;28;20409;-74
2023/03/31 07:50:16;;;;;;;4.80;1.98;;;17.70;58.70;;;;;;5015319;28;20022;-74
2023/03/31 07:52:42;;;;;;;5.18;1.77;;;17.70;58.70;;;;;;5015164;28;20057;-75
2023/03/31 07:55:09;;;;;;;3.30;1.50;;;17.70;58.90;;;;;;5015510;28;20026;-75
2023/03/31 07:57:36;;;;;;;7.68;1.80;;;17.70;58.90;;;;;;5015458;28;20034;-74
2023/03/31 08:00:07;;;;;;;7.07;2.70;;;17.80;58.80;;;;;;5015461;28;20021;-74
2023/03/31 08:02:33;;;;;;;3.85;1.70;;;17.80;58.80;;;;;;5014295;28;20619;-74
2023/03/31 08:04:59;;;;;;;4.55;1.70;;;17.70;58.70;;;;;;5014666;28;20116;-75
2023/03/31 08:07:26;;;;;;;4.43;1.70;;;17.80;58.80;;;;;;5015139;28;20030;-74
2023/03/31 08:09:52;;;;;;;7.57;2.25;;;17.80;58.70;;;;;;5015139;28;20036;-74
2023/03/31 08:12:18;;;;;;;5.95;1.80;;;17.80;58.90;;;;;;5014966;28;20025;-75
2023/03/31 08:14:44;;;;;;;5.55;1.80;;;17.80;58.90;;;;;;5015016;28;20018;-74
2023/03/31 08:17:10;;;;;;;4.82;1.70;;;17.80;58.90;;;;;;5014570;28;20099;-74
2023/03/31 08:19:36;;;;;;;7.22;2.25;;;17.90;58.80;;;;;;5014948;28;20026;-74
2023/03/31 08:22:02;;;;;;;4.80;1.50;;;17.80;58.80;;;;;;4997073;28;20531;-74
2023/03/31 08:24:28;;;;;;;4.32;1.55;;;17.90;58.90;;;;;;4997044;28;20085;-74
2023/03/31 08:26:54;;;;;;;5.68;2.03;;;17.90;58.90;;;;;;4997395;28;20484;-74
2023/03/31 08:29:20;;;;;;;7.88;1.90;;;17.90;59.00;;;;;;4997194;28;20038;-74
2023/03/31 08:31:46;;;;;;;4.57;1.77;;;17.90;58.80;;;;;;4997275;28;20029;-73
2023/03/31 08:34:13;;;;;;;4.32;1.77;;;17.90;58.80;;;;;;4997309;28;20030;-80
2023/03/31 08:36:40;;;;;;;7.05;2.13;;;17.90;58.80;;;;;;5015625;28;20030;-83
2023/03/31 08:39:06;;;;;;;6.18;2.00;;;17.90;58.90;;;;;;5017959;28;20109;-76
2023/03/31 08:41:53;;;;;;;6.75;1.95;;;17.90;59.00;;;;;;5014423;28;20117;-76
2023/03/31 08:44:31;;;;;;;7.45;1.80;;;17.90;59.20;;;;;;5014751;28;20076;-78
2023/03/31 08:46:59;;;;;;;5.10;1.90;;;17.90;59.00;;;;;;5014774;28;20388;-80
2023/03/31 08:49:27;;;;;;;5.22;1.75;;;17.90;59.20;;;;;;5014881;28;20018;-80
2023/03/31 08:52:03;;;;;;;5.60;2.58;;;17.90;59.00;;;;;;5014202;28;20018;-77
2023/03/31 08:54:36;;;;;;;6.80;1.85;;;17.90;59.20;;;;;;5014238;28;20038;-87
2023/03/31 08:57:05;;;;;;;7.50;2.22;;;17.90;59.20;;;;;;5014060;28;20136;-75
2023/03/31 08:59:35;;;;;;;6.18;2.03;;;17.90;59.40;;;;;;5013951;28;20021;-74
2023/03/31 09:02:28;;;;;;;6.38;1.92;;;17.90;59.10;;;;;;5013527;28;20519;-75
2023/03/31 09:05:36;;;;;;;8.60;2.30;;;17.90;59.20;;;;;;5013609;28;20132;-73
2023/03/31 09:08:08;;;;;;;5.00;1.63;;;17.90;59.20;;;;;;5013668;28;20034;-75
2023/03/31 09:10:40;;;;;;;6.05;2.00;;;17.90;59.50;;;;;;5013792;28;20026;-74
2023/03/31 09:13:16;;;;;;;5.88;1.95;;;17.90;59.30;;;;;;5013609;28;20025;-76
2023/03/31 09:15:54;;;;;;;6.65;2.05;;;17.90;59.30;;;;;;5012771;28;20496;-73
2023/03/31 09:18:39;;;;;;;5.75;1.98;;;17.90;59.20;;;;;;5013845;28;20034;-73
2023/03/31 09:21:30;;;;;;;8.20;1.95;;;17.90;59.30;;;;;;5013840;28;20113;-74
2023/03/31 09:24:10;;;;;;;6.43;2.17;;;18.00;59.30;;;;;;5013727;28;20018;-74
2023/03/31 09:26:52;;;;;;;7.70;2.00;;;18.00;60.10;;;;;;5013670;28;20105;-73
2023/03/31 09:29:40;;;;;;;6.50;2.05;;;18.00;59.30;;;;;;5013621;28;20022;-74
2023/03/31 09:32:37;;;;;;;7.05;1.85;;;18.00;59.40;;;;;;5013306;28;20041;-74
2023/03/31 09:35:17;;;;;;;9.00;2.03;;;18.00;59.40;;;;;;5005288;28;20088;-74
2023/03/31 09:37:43;;;;;;;;;;;18.00;59.40;;;;;;5014012;28;20025;-73
2023/03/31 09:40:23;;;;;;;7.78;2.55;;;18.00;59.40;;;;;;5013529;28;19909;-73
2023/03/31 09:42:57;;;;;;;7.22;2.03;;;18.00;59.40;;;;;;5013031;28;20477;-74
2023/03/31 09:45:23;;;;;;;5.30;1.70;;;18.00;59.50;;;;;;5013278;28;20034;-73
2023/03/31 09:48:01;;;;;;;6.78;1.67;;;18.00;59.30;;;;;;5013079;28;20022;-74
2023/03/31 09:50:29;;;;;;;7.30;1.70;;;18.10;59.30;;;;;;5013154;28;20076;-74
2023/03/31 09:52:58;;;;;;;9.38;2.40;;;18.10;59.30;;;;;;5013028;28;20026;-73
2023/03/31 09:55:52;;;;;;;5.80;2.10;;;18.10;59.20;;;;;;5013081;28;20022;-74
2023/03/31 09:58:19;;;;;;;6.63;2.20;;;18.10;59.10;;;;;;5011773;28;20409;-75
2023/03/31 10:01:01;;;;;;;9.02;2.05;;;18.10;59.10;;;;;;5012926;28;20049;-74
2023/03/31 10:03:35;;;;;;;7.82;2.10;;;18.10;59.10;;;;;;5013212;28;20030;-82
2023/03/31 10:06:08;;;;;;;8.45;2.50;;;18.10;59.10;;;;;;5013025;28;20101;-75
2023/03/31 10:08:42;;;;;;;5.93;2.08;;;18.20;59.10;;;;;;5013054;28;20389;-75
2023/03/31 10:11:10;;;;;;;10.43;2.60;;;18.20;59.20;;;;;;5013054;28;20018;-75
2023/03/31 10:13:45;;;;;;;7.50;2.30;;;18.20;59.20;;;;;;5012815;28;20044;-75
2023/03/31 10:16:19;;;;;;;6.75;2.22;;;18.20;59.00;;;;;;5012673;28;20140;-74
2023/03/31 10:18:45;;;;;;;7.30;2.35;;;18.20;59.00;;;;;;5012761;28;20064;-75
2023/03/31 10:21:27;;;;;;;9.35;2.28;;;18.20;59.10;;;;;;5012862;28;20029;-73
2023/03/31 10:23:54;;;;;;;7.18;2.13;;;18.20;59.00;;;;;;5012422;28;20038;-72
2023/03/31 10:26:26;;;;;;;6.38;1.90;;;18.20;59.00;;;;;;5012129;28;20153;-72
2023/03/31 10:28:54;;;;;;;4.57;1.65;;;18.20;59.10;;;;;;5012396;28;20109;-73
2023/03/31 10:31:25;;;;;;;8.38;2.05;;;18.20;59.00;;;;;;5012425;28;20481;-73
2023/03/31 10:33:52;;;;;;;6.65;1.70;;;18.20;59.00;;;;;;5012757;28;20042;-74
2023/03/31 10:36:28;;;;;;;5.40;1.52;;;18.20;59.10;;;;;;5012765;28;20388;-74
2023/03/31 10:38:55;;;;;;;4.07;1.70;;;18.20;59.20;;;;;;5012623;28;20026;-74
2023/03/31 10:41:25;;;;;;;7.45;1.70;;;18.20;59.10;;;;;;5012530;28;20084;-75
2023/03/31 10:43:56;;;;;;;8.95;2.25;;;18.20;59.20;;;;;;5012322;28;20026;-74
2023/03/31 10:46:46;;;;;;;7.63;1.85;;;18.20;59.10;;;;;;5012760;28;20057;-74
2023/03/31 10:49:22;;;;;;;6.05;1.95;;;18.20;59.20;;;;;;5007270;28;20377;-74
2023/03/31 10:51:52;;;;;;;7.85;1.70;;;18.20;59.20;;;;;;5012580;28;20050;-75
2023/03/31 10:54:18;;;;;;;;;;;18.20;59.20;;;;;;5012550;28;20532;-75
2023/03/31 10:56:56;;;;;;;6.28;1.85;;;18.20;59.20;;;;;;5012338;28;20364;-75
2023/03/31 10:59:41;;;;;;;7.15;2.10;;;18.20;59.20;;;;;;5012727;28;20036;-75
2023/03/31 11:02:45;;;;;;;6.50;1.80;;;18.20;59.10;;;;;;5012304;28;20046;-75
2023/03/31 11:05:29;;;;;;;6.38;2.13;;;18.20;59.10;;;;;;5012314;28;20068;-73
2023/03/31 11:08:17;;;;;;;6.10;2.10;;;18.30;59.30;;;;;;5011960;28;20018;-75
2023/03/31 11:11:14;;;;;;;5.38;1.88;;;18.20;59.20;;;;;;5010850;28;20026;-74
2023/03/31 11:13:56;;;;;;;4.85;1.80;;;18.20;59.10;;;;;;5010990;28;20022;-74
2023/03/31 11:16:41;;;;;;;8.63;2.58;;;18.30;59.30;;;;;;5011697;28;20096;-74
2023/03/31 11:19:21;;;;;;;6.90;1.83;;;18.30;59.20;;;;;;5010812;28;20025;-74
2023/03/31 11:22:11;;;;;;;6.15;1.73;;;18.20;59.10;;;;;;5011850;28;20033;-74
2023/03/31 11:25:19;;;;;;;5.50;1.90;;;18.30;59.20;;;;;;5011750;28;20022;-74
2023/03/31 11:27:56;;;;;;;6.10;1.67;;;18.30;59.10;;;;;;5012136;28;20384;-74
2023/03/31 11:30:23;;;;;;;5.78;1.60;;;18.30;59.10;;;;;;5011761;28;20499;-74
2023/03/31 11:33:07;;;;;;;6.70;1.90;;;18.30;59.00;;;;;;5011798;28;20055;-74
2023/03/31 11:35:34;;;;;;;6.28;1.58;;;18.30;59.10;;;;;;5011696;28;20087;-73
2023/03/31 11:38:16;;;;;;;6.45;1.90;;;18.30;59.10;;;;;;5013126;28;20041;-75
2023/03/31 11:41:03;;;;;;;5.00;1.65;;;18.30;58.90;;;;;;5015167;28;20503;-74
2023/03/31 11:43:36;;;;;;;2.85;1.20;;;18.30;59.10;;;;;;5015169;28;20041;-74
2023/03/31 11:46:26;;;;;;;5.70;1.60;;;18.30;58.90;;;;;;4997450;28;20053;-74
2023/03/31 11:49:21;;;;;;;4.25;1.45;;;18.30;58.90;;;;;;5015151;28;20026;-73
2023/03/31 11:52:01;;;;;;;7.82;1.83;;;18.30;58.90;;;;;;5014764;28;20045;-74
2023/03/31 11:54:35;;;;;;;5.18;1.83;;;18.30;58.90;;;;;;5015613;28;20129;-74
2023/03/31 11:57:08;;;;;;;6.15;1.63;;;18.30;59.10;;;;;;5015391;28;20050;-75
2023/03/31 11:59:36;;;;;;;5.63;1.60;;;18.30;59.10;;;;;;5015241;28;20105;-73
2023/03/31 12:02:20;;;;;;;10.13;1.92;;;18.30;59.10;;;;;;5014793;28;20109;-74
2023/03/31 12:04:51;;;;;;;5.72;1.65;;;18.30;59.10;;;;;;5015211;28;20032;-74
2023/03/31 12:07:21;;;;;;;4.25;1.70;;;18.30;59.10;;;;;;5014944;28;20029;-74
2023/03/31 12:10:01;;;;;;;4.85;1.25;;;18.30;59.20;;;;;;5014858;28;20030;-75
2023/03/31 12:12:34;;;;;;;4.43;1.58;;;18.30;59.20;;;;;;5014791;28;20030;-75
2023/03/31 12:15:15;;;;;;;5.50;1.55;;;18.40;59.20;;;;;;5014820;28;20381;-73
2023/03/31 12:17:47;;;;;;;6.88;1.85;;;18.30;59.10;;;;;;5014920;28;20044;-75
2023/03/31 12:20:40;;;;;;;3.63;1.33;;;18.30;59.10;;;;;;4997098;28;20076;-75
2023/03/31 12:23:15;;;;;;;2.55;1.30;;;18.30;59.10;;;;;;5010334;28;20052;-76
2023/03/31 12:26:10;;;;;;;4.97;1.50;;;18.30;59.10;;;;;;5014911;28;20018;-73
2023/03/31 12:28:42;;;;;;;8.52;1.42;;;18.30;59.20;;;;;;4998695;28;20046;-74
2023/03/31 12:31:19;;;;;;;4.28;1.40;;;18.30;59.10;;;;;;5014573;28;20495;-73
2023/03/31 12:33:56;;;;;;;3.67;1.20;;;18.30;59.20;;;;;;5014414;28;20232;-73
2023/03/31 12:36:37;;;;;;;4.38;1.40;;;18.30;59.20;;;;;;5014532;28;20097;-74
2023/03/31 12:39:10;;;;;;;5.40;1.67;;;18.30;59.30;;;;;;5014351;28;20034;-74
2023/03/31 12:41:54;;;;;;;4.90;1.70;;;18.30;59.10;;;;;;5014187;28;20038;-73
2023/03/31 12:44:38;;;;;;;4.68;1.60;;;18.30;59.10;;;;;;5014217;28;20041;-74
2023/03/31 12:47:20;;;;;;;5.03;1.42;;;18.30;59.10;;;;;;5014110;28;20053;-74
2023/03/31 12:50:12;;;;;;;5.78;1.13;;;18.30;59.10;;;;;;5013635;28;20060;-74
2023/03/31 12:53:08;;;;;;;4.85;1.48;;;18.30;59.00;;;;;;5014270;28;20026;-73
2023/03/31 12:55:41;;;;;;;4.30;1.30;;;18.30;59.00;;;;;;5014238;28;20536;-73
2023/03/31 12:58:25;;;;;;;5.00;1.67;;;18.40;59.10;;;;;;4996666;28;20061;-73
2023/03/31 13:01:13;;;;;;;4.18;1.10;;;18.30;59.00;;;;;;5014157;28;20030;-76
2023/03/31 13:03:47;;;;;;;3.45;1.23;;;18.30;59.00;;;;;;4996362;28;20042;-73
2023/03/31 13:06:32;;;;;;;4.70;1.15;;;18.30;59.00;;;;;;5013963;28;20049;-73
2023/03/31 13:09:07;;;;;;;4.25;1.50;;;18.30;59.00;;;;;;5013774;28;20507;-71
2023/03/31 13:11:35;;;;;;;4.35;1.20;;;18.30;59.00;;;;;;4996085;28;20030;-73
2023/03/31 13:14:23;;;;;;;5.78;1.50;;;18.30;59.10;;;;;;5013595;28;20067;-73
2023/03/31 13:16:54;;;;;;;3.20;1.00;;;18.30;58.90;;;;;;5013475;28;20084;-75